KBZN/BZN METAR and TAF weather

Enter ICAO airport designator
Station Type Date Time Source
KBZN METAR 2021/09/20 05:56 UTC NOAA

KBZN 200556Z 14004KT 10SM OVC100 06/04 A3011 RMK AO2 SLP189 60002 T00610044 10111 20061 51024 $


Station Type Date Time Source
KBZN Decoded METAR 2021/09/20 05:56 UTC NOAA

BOZEMAN GALLATIN FIELD, MT, United States (KBZN) 45-47N 111-09W 1361M
Sep 20, 2021 - 01:56 AM EDT / 2021.09.20 0556 UTC
Wind: from the SE (140 degrees) at 5 MPH (4 KT):0
Visibility: 10 mile(s):0
Sky conditions: overcast
Temperature: 43.0 F (6.1 C)
Dew Point: 39.9 F (4.4 C)
Relative Humidity: 88%
Pressure (altimeter): 30.11 in. Hg (1019 hPa)
Pressure tendency: 0.07 inches (2.4 hPa) higher than three hours ago
ob: KBZN 200556Z 14004KT 10SM OVC100 06/04 A3011 RMK AO2 SLP189 60002 T00610044 10111 20061 51024
cycle: 6

Station Type Date Time Source
KBZN TAF 2021/09/20 06:48 UTC NOAA

TAF KBZN 200545Z 2006/2112 23007KT P6SM SCT050 BKN080
FM201300 VRB05KT P6SM SCT040 OVC060
FM201800 30007KT P6SM SCT050 BKN080 PROB30 2018/2023 -SHRA BKN050
FM210200 13004KT P6SM SCT080

Example: see airport list